sensor_id;sensor_type;location;lat;lon;timestamp;temperature;humidity
71177;DHT22;58877;51.992;4.504;2023-12-28T00:00:13;11.82;81.01
71177;DHT22;58877;51.992;4.504;2023-12-28T00:02:58;11.70;81.36
71177;DHT22;58877;51.992;4.504;2023-12-28T00:06:08;11.73;81.34
71177;DHT22;58877;51.992;4.504;2023-12-28T00:08:49;11.69;81.48
71177;DHT22;58877;51.992;4.504;2023-12-28T00:11:45;11.66;81.77
71177;DHT22;58877;51.992;4.504;2023-12-28T00:14:20;11.69;81.79
71177;DHT22;58877;51.992;4.504;2023-12-28T00:16:49;11.66;81.56
71177;DHT22;58877;51.992;4.504;2023-12-28T00:19:30;11.61;81.77
71177;DHT22;58877;51.992;4.504;2023-12-28T00:22:11;11.58;81.89
71177;DHT22;58877;51.992;4.504;2023-12-28T00:25:18;11.62;81.79
71177;DHT22;58877;51.992;4.504;2023-12-28T00:27:56;11.59;81.79
71177;DHT22;58877;51.992;4.504;2023-12-28T00:31:06;11.66;81.26
71177;DHT22;58877;51.992;4.504;2023-12-28T00:33:46;11.69;81.34
71177;DHT22;58877;51.992;4.504;2023-12-28T00:36:22;11.62;81.55
71177;DHT22;58877;51.992;4.504;2023-12-28T00:39:07;11.61;81.79
71177;DHT22;58877;51.992;4.504;2023-12-28T00:41:40;11.65;81.22
71177;DHT22;58877;51.992;4.504;2023-12-28T00:44:36;11.61;81.35
71177;DHT22;58877;51.992;4.504;2023-12-28T00:47:40;11.65;81.26
71177;DHT22;58877;51.992;4.504;2023-12-28T00:50:09;11.70;81.05
71177;DHT22;58877;51.992;4.504;2023-12-28T00:52:40;11.62;81.42
71177;DHT22;58877;51.992;4.504;2023-12-28T00:55:06;11.62;81.07
71177;DHT22;58877;51.992;4.504;2023-12-28T00:57:33;11.63;80.94
71177;DHT22;58877;51.992;4.504;2023-12-28T00:59:59;11.63;80.81
71177;DHT22;58877;51.992;4.504;2023-12-28T01:02:24;11.66;80.76
71177;DHT22;58877;51.992;4.504;2023-12-28T01:04:50;11.56;80.82
71177;DHT22;58877;51.992;4.504;2023-12-28T01:07:16;11.65;80.60
71177;DHT22;58877;51.992;4.504;2023-12-28T01:09:41;11.59;80.66
71177;DHT22;58877;51.992;4.504;2023-12-28T01:12:07;11.59;80.71
71177;DHT22;58877;51.992;4.504;2023-12-28T01:14:33;11.51;80.99
71177;DHT22;58877;51.992;4.504;2023-12-28T01:16:58;11.56;80.98
71177;DHT22;58877;51.992;4.504;2023-12-28T01:19:24;11.55;80.72
71177;DHT22;58877;51.992;4.504;2023-12-28T01:21:50;11.56;80.85
71177;DHT22;58877;51.992;4.504;2023-12-28T01:24:16;11.54;80.95
71177;DHT22;58877;51.992;4.504;2023-12-28T01:26:42;11.51;80.99
71177;DHT22;58877;51.992;4.504;2023-12-28T01:29:08;11.51;81.03
71177;DHT22;58877;51.992;4.504;2023-12-28T01:31:34;11.52;81.29
71177;DHT22;58877;51.992;4.504;2023-12-28T01:34:00;11.55;80.93
71177;DHT22;58877;51.992;4.504;2023-12-28T01:36:25;11.46;81.15
71177;DHT22;58877;51.992;4.504;2023-12-28T01:38:51;11.49;81.33
71177;DHT22;58877;51.992;4.504;2023-12-28T01:41:17;11.54;81.29
71177;DHT22;58877;51.992;4.504;2023-12-28T01:43:45;11.52;81.11
71177;DHT22;58877;51.992;4.504;2023-12-28T01:46:17;11.43;81.45
71177;DHT22;58877;51.992;4.504;2023-12-28T01:48:45;11.46;81.20
71177;DHT22;58877;51.992;4.504;2023-12-28T01:51:14;11.56;80.88
71177;DHT22;58877;51.992;4.504;2023-12-28T01:53:41;11.63;80.63
71177;DHT22;58877;51.992;4.504;2023-12-28T01:56:07;11.49;81.02
71177;DHT22;58877;51.992;4.504;2023-12-28T01:58:35;11.45;80.95
71177;DHT22;58877;51.992;4.504;2023-12-28T02:01:01;11.45;80.92
71177;DHT22;58877;51.992;4.504;2023-12-28T02:03:27;11.48;80.94
71177;DHT22;58877;51.992;4.504;2023-12-28T02:05:54;11.46;80.90
71177;DHT22;58877;51.992;4.504;2023-12-28T02:08:19;11.36;80.86
71177;DHT22;58877;51.992;4.504;2023-12-28T02:10:46;11.42;80.75
71177;DHT22;58877;51.992;4.504;2023-12-28T02:13:11;11.48;80.67
71177;DHT22;58877;51.992;4.504;2023-12-28T02:15:37;11.40;80.63
71177;DHT22;58877;51.992;4.504;2023-12-28T02:18:11;11.42;80.79
71177;DHT22;58877;51.992;4.504;2023-12-28T02:20:39;11.38;80.52
71177;DHT22;58877;51.992;4.504;2023-12-28T02:23:05;11.40;80.53
71177;DHT22;58877;51.992;4.504;2023-12-28T02:25:31;11.26;81.10
71177;DHT22;58877;51.992;4.504;2023-12-28T02:27:57;11.29;80.85
71177;DHT22;58877;51.992;4.504;2023-12-28T02:30:23;11.26;81.31
71177;DHT22;58877;51.992;4.504;2023-12-28T02:38:14;11.31;80.78
71177;DHT22;58877;51.992;4.504;2023-12-28T02:40:42;11.35;80.82
71177;DHT22;58877;51.992;4.504;2023-12-28T02:43:12;11.39;80.59
71177;DHT22;58877;51.992;4.504;2023-12-28T02:45:38;11.32;80.56
71177;DHT22;58877;51.992;4.504;2023-12-28T02:48:05;11.31;80.68
71177;DHT22;58877;51.992;4.504;2023-12-28T02:50:34;11.31;80.57
71177;DHT22;58877;51.992;4.504;2023-12-28T02:53:01;11.34;80.34
71177;DHT22;58877;51.992;4.504;2023-12-28T02:55:26;11.36;80.09
71177;DHT22;58877;51.992;4.504;2023-12-28T02:57:55;11.39;80.07
71177;DHT22;58877;51.992;4.504;2023-12-28T03:00:21;11.40;79.89
71177;DHT22;58877;51.992;4.504;2023-12-28T03:02:47;11.36;79.82
71177;DHT22;58877;51.992;4.504;2023-12-28T03:05:12;11.35;80.01
71177;DHT22;58877;51.992;4.504;2023-12-28T03:07:38;11.42;79.70
71177;DHT22;58877;51.992;4.504;2023-12-28T03:10:06;11.45;79.46
71177;DHT22;58877;51.992;4.504;2023-12-28T03:12:32;11.36;79.50
71177;DHT22;58877;51.992;4.504;2023-12-28T03:14:58;11.40;79.37
71177;DHT22;58877;51.992;4.504;2023-12-28T03:17:23;11.38;79.53
71177;DHT22;58877;51.992;4.504;2023-12-28T03:19:49;11.43;79.10
71177;DHT22;58877;51.992;4.504;2023-12-28T03:22:15;11.32;79.26
71177;DHT22;58877;51.992;4.504;2023-12-28T03:24:41;11.39;79.07
71177;DHT22;58877;51.992;4.504;2023-12-28T03:27:06;11.46;78.89
71177;DHT22;58877;51.992;4.504;2023-12-28T03:29:33;11.43;78.85
71177;DHT22;58877;51.992;4.504;2023-12-28T03:31:58;11.38;78.98
71177;DHT22;58877;51.992;4.504;2023-12-28T03:34:24;11.31;79.19
71177;DHT22;58877;51.992;4.504;2023-12-28T03:36:52;11.26;79.23
71177;DHT22;58877;51.992;4.504;2023-12-28T03:39:18;11.32;79.30
71177;DHT22;58877;51.992;4.504;2023-12-28T03:41:43;11.38;78.98
71177;DHT22;58877;51.992;4.504;2023-12-28T03:44:09;11.39;78.73
71177;DHT22;58877;51.992;4.504;2023-12-28T03:46:35;11.36;78.85
71177;DHT22;58877;51.992;4.504;2023-12-28T03:49:00;11.40;78.75
71177;DHT22;58877;51.992;4.504;2023-12-28T03:51:26;11.36;78.57
71177;DHT22;58877;51.992;4.504;2023-12-28T03:53:52;11.38;78.84
71177;DHT22;58877;51.992;4.504;2023-12-28T03:56:21;11.38;78.55
71177;DHT22;58877;51.992;4.504;2023-12-28T03:58:47;11.38;78.55
71177;DHT22;58877;51.992;4.504;2023-12-28T04:01:13;11.38;78.58
71177;DHT22;58877;51.992;4.504;2023-12-28T04:03:38;11.42;78.39
71177;DHT22;58877;51.992;4.504;2023-12-28T04:06:05;11.42;78.61
71177;DHT22;58877;51.992;4.504;2023-12-28T04:08:30;11.51;78.21
71177;DHT22;58877;51.992;4.504;2023-12-28T04:10:56;11.52;78.00
71177;DHT22;58877;51.992;4.504;2023-12-28T04:13:22;11.52;77.86
71177;DHT22;58877;51.992;4.504;2023-12-28T04:15:47;11.59;77.55
71177;DHT22;58877;51.992;4.504;2023-12-28T04:18:13;11.62;77.52
71177;DHT22;58877;51.992;4.504;2023-12-28T04:20:38;11.65;77.08
71177;DHT22;58877;51.992;4.504;2023-12-28T04:23:06;11.76;77.01
71177;DHT22;58877;51.992;4.504;2023-12-28T04:25:32;11.70;76.94
71177;DHT22;58877;51.992;4.504;2023-12-28T04:27:57;11.70;76.83
71177;DHT22;58877;51.992;4.504;2023-12-28T04:30:23;11.79;76.46
71177;DHT22;58877;51.992;4.504;2023-12-28T04:32:48;11.77;76.04
71177;DHT22;58877;51.992;4.504;2023-12-28T04:35:14;11.73;76.14
71177;DHT22;58877;51.992;4.504;2023-12-28T04:37:40;11.86;75.76
71177;DHT22;58877;51.992;4.504;2023-12-28T04:40:06;11.85;75.95
71177;DHT22;58877;51.992;4.504;2023-12-28T04:42:31;11.82;75.83
71177;DHT22;58877;51.992;4.504;2023-12-28T04:44:57;11.86;75.65
71177;DHT22;58877;51.992;4.504;2023-12-28T04:47:23;11.89;75.35
71177;DHT22;58877;51.992;4.504;2023-12-28T04:49:48;11.93;75.24
71177;DHT22;58877;51.992;4.504;2023-12-28T04:52:14;11.89;75.30
71177;DHT22;58877;51.992;4.504;2023-12-28T04:54:40;11.87;75.35
71177;DHT22;58877;51.992;4.504;2023-12-28T04:57:06;11.87;75.07
71177;DHT22;58877;51.992;4.504;2023-12-28T04:59:41;11.89;75.10
71177;DHT22;58877;51.992;4.504;2023-12-28T05:02:07;11.93;75.14
71177;DHT22;58877;51.992;4.504;2023-12-28T05:04:33;12.00;74.67
71177;DHT22;58877;51.992;4.504;2023-12-28T05:06:59;11.90;75.25
71177;DHT22;58877;51.992;4.504;2023-12-28T05:09:24;11.97;74.67
71177;DHT22;58877;51.992;4.504;2023-12-28T05:11:50;11.97;74.95
71177;DHT22;58877;51.992;4.504;2023-12-28T05:14:15;12.00;74.93
71177;DHT22;58877;51.992;4.504;2023-12-28T05:16:40;11.96;75.05
71177;DHT22;58877;51.992;4.504;2023-12-28T05:19:06;11.99;75.01
71177;DHT22;58877;51.992;4.504;2023-12-28T05:21:32;11.90;75.01
71177;DHT22;58877;51.992;4.504;2023-12-28T05:23:58;11.86;75.37
71177;DHT22;58877;51.992;4.504;2023-12-28T05:26:24;11.89;75.15
71177;DHT22;58877;51.992;4.504;2023-12-28T05:28:49;11.87;75.21
71177;DHT22;58877;51.992;4.504;2023-12-28T05:31:15;11.97;74.92
71177;DHT22;58877;51.992;4.504;2023-12-28T05:33:40;11.94;74.89
71177;DHT22;58877;51.992;4.504;2023-12-28T05:36:06;11.90;74.96
71177;DHT22;58877;51.992;4.504;2023-12-28T05:38:32;11.89;75.09
71177;DHT22;58877;51.992;4.504;2023-12-28T05:40:59;11.89;75.05
71177;DHT22;58877;51.992;4.504;2023-12-28T05:43:25;12.00;74.58
71177;DHT22;58877;51.992;4.504;2023-12-28T05:45:50;11.99;74.76
71177;DHT22;58877;51.992;4.504;2023-12-28T05:48:16;11.97;74.66
71177;DHT22;58877;51.992;4.504;2023-12-28T05:50:42;11.93;74.78
71177;DHT22;58877;51.992;4.504;2023-12-28T05:53:07;11.96;74.75
71177;DHT22;58877;51.992;4.504;2023-12-28T05:55:40;11.99;74.57
71177;DHT22;58877;51.992;4.504;2023-12-28T05:58:05;11.99;74.65
71177;DHT22;58877;51.992;4.504;2023-12-28T06:00:31;11.99;74.64
71177;DHT22;58877;51.992;4.504;2023-12-28T06:02:56;11.99;74.51
71177;DHT22;58877;51.992;4.504;2023-12-28T06:05:22;12.00;74.63
71177;DHT22;58877;51.992;4.504;2023-12-28T06:07:47;12.03;74.36
71177;DHT22;58877;51.992;4.504;2023-12-28T12:48:05;12.77;71.33
71177;DHT22;58877;51.992;4.504;2023-12-28T12:50:39;12.83;71.24
71177;DHT22;58877;51.992;4.504;2023-12-28T12:53:05;12.83;71.30
71177;DHT22;58877;51.992;4.504;2023-12-28T12:55:31;12.73;71.71
71177;DHT22;58877;51.992;4.504;2023-12-28T12:57:57;12.63;71.94
71177;DHT22;58877;51.992;4.504;2023-12-28T13:00:24;12.78;71.81
71177;DHT22;58877;51.992;4.504;2023-12-28T13:02:50;12.80;71.16
71177;DHT22;58877;51.992;4.504;2023-12-28T13:05:17;12.65;71.88
71177;DHT22;58877;51.992;4.504;2023-12-28T13:07:43;12.80;71.47
71177;DHT22;58877;51.992;4.504;2023-12-28T13:10:09;12.83;71.65
71177;DHT22;58877;51.992;4.504;2023-12-28T13:12:36;12.84;71.54
71177;DHT22;58877;51.992;4.504;2023-12-28T13:15:02;12.77;71.39
71177;DHT22;58877;51.992;4.504;2023-12-28T13:17:27;12.57;72.29
71177;DHT22;58877;51.992;4.504;2023-12-28T13:19:54;12.53;72.95
71177;DHT22;58877;51.992;4.504;2023-12-28T13:22:19;12.37;74.08
71177;DHT22;58877;51.992;4.504;2023-12-28T13:24:45;12.36;74.88
71177;DHT22;58877;51.992;4.504;2023-12-28T13:27:11;12.31;75.48
71177;DHT22;58877;51.992;4.504;2023-12-28T13:29:36;12.13;76.35
71177;DHT22;58877;51.992;4.504;2023-12-28T13:32:02;12.14;76.73
71177;DHT22;58877;51.992;4.504;2023-12-28T13:34:29;12.07;77.54
71177;DHT22;58877;51.992;4.504;2023-12-28T13:36:54;11.93;77.88
71177;DHT22;58877;51.992;4.504;2023-12-28T13:39:20;11.90;78.54
71177;DHT22;58877;51.992;4.504;2023-12-28T13:41:46;11.93;78.22
71177;DHT22;58877;51.992;4.504;2023-12-28T13:44:13;11.97;77.95
71177;DHT22;58877;51.992;4.504;2023-12-28T13:46:38;12.01;77.29
71177;DHT22;58877;51.992;4.504;2023-12-28T13:49:05;11.91;78.23
71177;DHT22;58877;51.992;4.504;2023-12-28T13:51:33;11.79;78.78
71177;DHT22;58877;51.992;4.504;2023-12-28T13:53:59;11.93;78.94
71177;DHT22;58877;51.992;4.504;2023-12-28T13:56:25;11.90;79.21
71177;DHT22;58877;51.992;4.504;2023-12-28T13:58:51;11.99;79.25
71177;DHT22;58877;51.992;4.504;2023-12-28T14:01:17;11.76;79.60
71177;DHT22;58877;51.992;4.504;2023-12-28T14:03:42;11.79;79.61
71177;DHT22;58877;51.992;4.504;2023-12-28T14:06:10;11.72;79.66
71177;DHT22;58877;51.992;4.504;2023-12-28T14:08:36;11.76;79.51
71177;DHT22;58877;51.992;4.504;2023-12-28T14:11:05;11.79;79.53
71177;DHT22;58877;51.992;4.504;2023-12-28T14:13:31;11.79;79.69
71177;DHT22;58877;51.992;4.504;2023-12-28T14:15:57;11.65;80.25
71177;DHT22;58877;51.992;4.504;2023-12-28T14:18:22;11.72;80.02
71177;DHT22;58877;51.992;4.504;2023-12-28T14:20:48;11.61;80.09
71177;DHT22;58877;51.992;4.504;2023-12-28T14:23:14;11.58;80.03
71177;DHT22;58877;51.992;4.504;2023-12-28T14:25:40;11.63;79.78
71177;DHT22;58877;51.992;4.504;2023-12-28T14:28:06;11.69;79.36
71177;DHT22;58877;51.992;4.504;2023-12-28T14:30:38;11.75;78.93
71177;DHT22;58877;51.992;4.504;2023-12-28T14:33:04;11.77;78.69
71177;DHT22;58877;51.992;4.504;2023-12-28T14:35:30;11.85;77.98
71177;DHT22;58877;51.992;4.504;2023-12-28T14:37:56;11.83;77.71
71177;DHT22;58877;51.992;4.504;2023-12-28T14:40:22;11.85;77.66
71177;DHT22;58877;51.992;4.504;2023-12-28T14:42:48;12.06;76.88
71177;DHT22;58877;51.992;4.504;2023-12-28T14:45:13;12.12;76.13
71177;DHT22;58877;51.992;4.504;2023-12-28T14:47:39;12.04;75.56
71177;DHT22;58877;51.992;4.504;2023-12-28T14:50:05;12.06;75.00
71177;DHT22;58877;51.992;4.504;2023-12-28T14:52:31;12.12;75.01
71177;DHT22;58877;51.992;4.504;2023-12-28T14:54:57;12.03;74.69
71177;DHT22;58877;51.992;4.504;2023-12-28T14:57:25;12.19;74.59
71177;DHT22;58877;51.992;4.504;2023-12-28T14:59:51;12.24;74.07
71177;DHT22;58877;51.992;4.504;2023-12-28T15:02:17;12.24;73.95
71177;DHT22;58877;51.992;4.504;2023-12-28T15:04:42;12.36;73.67
71177;DHT22;58877;51.992;4.504;2023-12-28T15:07:08;12.29;73.53
71177;DHT22;58877;51.992;4.504;2023-12-28T15:09:33;12.21;73.41
71177;DHT22;58877;51.992;4.504;2023-12-28T15:11:59;12.29;73.36
71177;DHT22;58877;51.992;4.504;2023-12-28T15:14:25;12.33;72.89
71177;DHT22;58877;51.992;4.504;2023-12-28T15:16:51;12.30;72.59
71177;DHT22;58877;51.992;4.504;2023-12-28T15:19:17;12.30;72.72
71177;DHT22;58877;51.992;4.504;2023-12-28T15:21:43;12.37;72.46
71177;DHT22;58877;51.992;4.504;2023-12-28T15:24:09;12.33;72.12
71177;DHT22;58877;51.992;4.504;2023-12-28T15:26:35;12.30;71.97
71177;DHT22;58877;51.992;4.504;2023-12-28T15:29:02;12.23;71.72
71177;DHT22;58877;51.992;4.504;2023-12-28T15:31:28;12.30;71.68
71177;DHT22;58877;51.992;4.504;2023-12-28T15:33:55;12.36;71.42
71177;DHT22;58877;51.992;4.504;2023-12-28T15:36:22;12.26;71.56
71177;DHT22;58877;51.992;4.504;2023-12-28T15:38:47;12.29;71.35
71177;DHT22;58877;51.992;4.504;2023-12-28T15:41:13;12.30;71.47
71177;DHT22;58877;51.992;4.504;2023-12-28T15:43:39;12.20;71.35
71177;DHT22;58877;51.992;4.504;2023-12-28T15:46:04;12.19;71.70
71177;DHT22;58877;51.992;4.504;2023-12-28T15:48:30;12.10;71.56
71177;DHT22;58877;51.992;4.504;2023-12-28T15:50:55;12.13;71.73
71177;DHT22;58877;51.992;4.504;2023-12-28T15:53:21;12.20;71.90
71177;DHT22;58877;51.992;4.504;2023-12-28T15:55:47;12.20;71.65
71177;DHT22;58877;51.992;4.504;2023-12-28T15:58:12;12.26;71.67
71177;DHT22;58877;51.992;4.504;2023-12-28T16:00:38;12.20;71.84
71177;DHT22;58877;51.992;4.504;2023-12-28T16:03:07;12.27;71.61
71177;DHT22;58877;51.992;4.504;2023-12-28T16:05:33;12.17;71.92
71177;DHT22;58877;51.992;4.504;2023-12-28T16:07:59;12.24;71.77
71177;DHT22;58877;51.992;4.504;2023-12-28T16:10:25;12.27;71.69
71177;DHT22;58877;51.992;4.504;2023-12-28T16:12:51;12.14;71.82
71177;DHT22;58877;51.992;4.504;2023-12-28T16:15:17;12.13;71.90
71177;DHT22;58877;51.992;4.504;2023-12-28T16:17:43;12.16;71.92
71177;DHT22;58877;51.992;4.504;2023-12-28T16:20:09;12.12;71.91
71177;DHT22;58877;51.992;4.504;2023-12-28T16:22:35;12.16;71.87
71177;DHT22;58877;51.992;4.504;2023-12-28T16:25:01;12.12;71.72
71177;DHT22;58877;51.992;4.504;2023-12-28T16:27:27;12.07;71.71
71177;DHT22;58877;51.992;4.504;2023-12-28T16:29:56;12.07;71.45
71177;DHT22;58877;51.992;4.504;2023-12-28T16:32:22;12.12;71.55
71177;DHT22;58877;51.992;4.504;2023-12-28T16:34:47;12.14;71.30
71177;DHT22;58877;51.992;4.504;2023-12-28T16:37:13;12.09;71.49
71177;DHT22;58877;51.992;4.504;2023-12-28T16:39:38;12.13;71.48
71177;DHT22;58877;51.992;4.504;2023-12-28T16:42:04;12.14;70.95
71177;DHT22;58877;51.992;4.504;2023-12-28T16:44:30;12.07;71.16
71177;DHT22;58877;51.992;4.504;2023-12-28T16:46:55;12.06;71.26
71177;DHT22;58877;51.992;4.504;2023-12-28T16:49:22;12.04;71.10
71177;DHT22;58877;51.992;4.504;2023-12-28T16:51:47;12.04;70.93
71177;DHT22;58877;51.992;4.504;2023-12-28T16:54:16;12.10;71.16
71177;DHT22;58877;51.992;4.504;2023-12-28T16:56:42;12.09;70.91
71177;DHT22;58877;51.992;4.504;2023-12-28T16:59:08;12.17;70.70
71177;DHT22;58877;51.992;4.504;2023-12-28T17:01:33;12.14;70.79
71177;DHT22;58877;51.992;4.504;2023-12-28T17:03:59;12.14;70.63
71177;DHT22;58877;51.992;4.504;2023-12-28T17:06:25;12.17;70.70
71177;DHT22;58877;51.992;4.504;2023-12-28T17:08:51;12.16;70.56
71177;DHT22;58877;51.992;4.504;2023-12-28T17:11:17;12.16;70.58
71177;DHT22;58877;51.992;4.504;2023-12-28T17:13:44;12.17;70.59
71177;DHT22;58877;51.992;4.504;2023-12-28T17:16:10;12.10;70.65
71177;DHT22;58877;51.992;4.504;2023-12-28T17:18:36;12.06;70.96
71177;DHT22;58877;51.992;4.504;2023-12-28T17:21:08;12.06;70.80
71177;DHT22;58877;51.992;4.504;2023-12-28T17:23:37;12.13;70.61
71177;DHT22;58877;51.992;4.504;2023-12-28T17:26:18;12.10;70.97
71177;DHT22;58877;51.992;4.504;2023-12-28T17:29:05;12.04;71.09
71177;DHT22;58877;51.992;4.504;2023-12-28T17:31:33;12.09;71.11
71177;DHT22;58877;51.992;4.504;2023-12-28T17:33:59;12.10;71.30
71177;DHT22;58877;51.992;4.504;2023-12-28T17:36:25;12.16;71.08
71177;DHT22;58877;51.992;4.504;2023-12-28T17:38:53;12.21;70.90
71177;DHT22;58877;51.992;4.504;2023-12-28T17:41:22;12.21;70.67
71177;DHT22;58877;51.992;4.504;2023-12-28T17:43:56;12.17;71.36
71177;DHT22;58877;51.992;4.504;2023-12-28T17:46:49;12.20;71.04
71177;DHT22;58877;51.992;4.504;2023-12-28T17:49:24;12.19;71.13
71177;DHT22;58877;51.992;4.504;2023-12-28T17:51:52;12.20;71.34
71177;DHT22;58877;51.992;4.504;2023-12-28T17:54:19;12.10;71.40
71177;DHT22;58877;51.992;4.504;2023-12-28T17:56:45;12.10;71.46
71177;DHT22;58877;51.992;4.504;2023-12-28T17:59:10;12.16;71.48
71177;DHT22;58877;51.992;4.504;2023-12-28T18:01:36;12.13;71.51
71177;DHT22;58877;51.992;4.504;2023-12-28T18:04:02;12.17;71.46
71177;DHT22;58877;51.992;4.504;2023-12-28T18:06:27;12.16;71.45
71177;DHT22;58877;51.992;4.504;2023-12-28T18:08:53;12.20;71.42
71177;DHT22;58877;51.992;4.504;2023-12-28T18:11:18;12.21;71.57
71177;DHT22;58877;51.992;4.504;2023-12-28T18:13:44;12.14;71.82
71177;DHT22;58877;51.992;4.504;2023-12-28T18:16:10;12.14;71.40
71177;DHT22;58877;51.992;4.504;2023-12-28T18:18:36;12.10;71.95
71177;DHT22;58877;51.992;4.504;2023-12-28T18:21:02;12.17;71.45
71177;DHT22;58877;51.992;4.504;2023-12-28T18:23:27;12.19;71.81
71177;DHT22;58877;51.992;4.504;2023-12-28T18:25:53;12.20;71.49
71177;DHT22;58877;51.992;4.504;2023-12-28T18:28:19;12.16;71.96
71177;DHT22;58877;51.992;4.504;2023-12-28T18:30:47;12.10;71.73
71177;DHT22;58877;51.992;4.504;2023-12-28T18:33:13;12.10;71.89
71177;DHT22;58877;51.992;4.504;2023-12-28T18:35:42;12.10;71.81
71177;DHT22;58877;51.992;4.504;2023-12-28T18:38:08;12.07;71.87
71177;DHT22;58877;51.992;4.504;2023-12-28T18:40:33;12.07;72.13
71177;DHT22;58877;51.992;4.504;2023-12-28T18:42:59;12.03;71.92
71177;DHT22;58877;51.992;4.504;2023-12-28T18:45:25;12.06;71.73
71177;DHT22;58877;51.992;4.504;2023-12-28T18:47:50;12.14;71.65
71177;DHT22;58877;51.992;4.504;2023-12-28T18:50:16;12.14;71.73
71177;DHT22;58877;51.992;4.504;2023-12-28T18:52:41;12.09;71.88
71177;DHT22;58877;51.992;4.504;2023-12-28T18:55:07;12.06;71.91
71177;DHT22;58877;51.992;4.504;2023-12-28T18:57:33;12.07;71.51
71177;DHT22;58877;51.992;4.504;2023-12-28T18:59:58;12.10;71.36
71177;DHT22;58877;51.992;4.504;2023-12-28T19:02:24;12.07;71.40
71177;DHT22;58877;51.992;4.504;2023-12-28T19:04:51;12.12;71.58
71177;DHT22;58877;51.992;4.504;2023-12-28T19:07:16;12.13;71.47
71177;DHT22;58877;51.992;4.504;2023-12-28T19:09:42;12.14;71.33
71177;DHT22;58877;51.992;4.504;2023-12-28T19:12:10;12.17;71.13
71177;DHT22;58877;51.992;4.504;2023-12-28T19:14:39;12.13;71.41
71177;DHT22;58877;51.992;4.504;2023-12-28T19:17:04;12.17;71.10
71177;DHT22;58877;51.992;4.504;2023-12-28T19:19:30;12.10;71.56
71177;DHT22;58877;51.992;4.504;2023-12-28T19:21:56;12.17;71.12
71177;DHT22;58877;51.992;4.504;2023-12-28T19:24:23;12.14;71.35
71177;DHT22;58877;51.992;4.504;2023-12-28T19:26:51;12.17;71.16
71177;DHT22;58877;51.992;4.504;2023-12-28T19:29:17;12.16;71.06
71177;DHT22;58877;51.992;4.504;2023-12-28T19:31:43;12.17;71.40
71177;DHT22;58877;51.992;4.504;2023-12-28T19:34:08;12.14;71.26
71177;DHT22;58877;51.992;4.504;2023-12-28T19:36:37;12.10;71.28
71177;DHT22;58877;51.992;4.504;2023-12-28T19:39:03;12.13;71.76
71177;DHT22;58877;51.992;4.504;2023-12-28T19:41:32;12.20;71.68
71177;DHT22;58877;51.992;4.504;2023-12-28T19:43:57;12.09;71.87
71177;DHT22;58877;51.992;4.504;2023-12-28T19:46:23;12.14;71.52
71177;DHT22;58877;51.992;4.504;2023-12-28T19:48:51;12.14;71.61
71177;DHT22;58877;51.992;4.504;2023-12-28T19:51:26;12.06;71.89
71177;DHT22;58877;51.992;4.504;2023-12-28T19:53:52;12.10;71.88
71177;DHT22;58877;51.992;4.504;2023-12-28T19:56:21;12.09;71.94
71177;DHT22;58877;51.992;4.504;2023-12-28T19:58:49;12.04;71.95
71177;DHT22;58877;51.992;4.504;2023-12-28T20:01:16;12.04;72.34
71177;DHT22;58877;51.992;4.504;2023-12-28T20:03:45;11.91;72.41
71177;DHT22;58877;51.992;4.504;2023-12-28T20:06:11;11.97;72.48
71177;DHT22;58877;51.992;4.504;2023-12-28T20:08:36;11.94;72.32
71177;DHT22;58877;51.992;4.504;2023-12-28T20:11:02;11.89;72.52
71177;DHT22;58877;51.992;4.504;2023-12-28T20:13:27;11.93;72.53
71177;DHT22;58877;51.992;4.504;2023-12-28T20:15:54;11.89;72.33
71177;DHT22;58877;51.992;4.504;2023-12-28T20:18:20;11.87;72.41
71177;DHT22;58877;51.992;4.504;2023-12-28T20:20:45;12.00;72.19
71177;DHT22;58877;51.992;4.504;2023-12-28T20:23:11;11.93;72.28
71177;DHT22;58877;51.992;4.504;2023-12-28T20:25:37;11.90;72.25
71177;DHT22;58877;51.992;4.504;2023-12-28T20:28:06;11.94;72.34
71177;DHT22;58877;51.992;4.504;2023-12-28T20:30:32;12.06;72.01
71177;DHT22;58877;51.992;4.504;2023-12-28T20:32:58;11.91;72.41
71177;DHT22;58877;51.992;4.504;2023-12-28T20:35:24;11.85;72.70
71177;DHT22;58877;51.992;4.504;2023-12-28T20:37:49;11.90;72.54
71177;DHT22;58877;51.992;4.504;2023-12-28T20:40:15;11.83;72.83
71177;DHT22;58877;51.992;4.504;2023-12-28T20:42:41;11.87;72.88
71177;DHT22;58877;51.992;4.504;2023-12-28T20:45:07;11.80;72.74
71177;DHT22;58877;51.992;4.504;2023-12-28T20:47:33;11.83;72.82
71177;DHT22;58877;51.992;4.504;2023-12-28T20:49:58;11.75;73.13
71177;DHT22;58877;51.992;4.504;2023-12-28T20:52:24;11.82;73.03
71177;DHT22;58877;51.992;4.504;2023-12-28T20:54:50;11.94;72.91
71177;DHT22;58877;51.992;4.504;2023-12-28T20:57:15;11.85;72.88
71177;DHT22;58877;51.992;4.504;2023-12-28T20:59:41;11.86;72.97
71177;DHT22;58877;51.992;4.504;2023-12-28T21:02:11;11.85;73.19
71177;DHT22;58877;51.992;4.504;2023-12-28T21:04:38;11.86;73.19
71177;DHT22;58877;51.992;4.504;2023-12-28T21:07:03;11.87;73.23
71177;DHT22;58877;51.992;4.504;2023-12-28T21:09:29;11.73;73.76
71177;DHT22;58877;51.992;4.504;2023-12-28T21:11:55;11.82;73.71
71177;DHT22;58877;51.992;4.504;2023-12-28T21:14:25;11.86;73.75
71177;DHT22;58877;51.992;4.504;2023-12-28T21:16:53;11.76;74.00
71177;DHT22;58877;51.992;4.504;2023-12-28T21:19:18;11.85;73.77
71177;DHT22;58877;51.992;4.504;2023-12-28T21:21:44;11.89;73.74
71177;DHT22;58877;51.992;4.504;2023-12-28T21:24:10;11.86;73.53
71177;DHT22;58877;51.992;4.504;2023-12-28T21:26:35;11.90;73.58
71177;DHT22;58877;51.992;4.504;2023-12-28T21:29:01;11.91;73.99
71177;DHT22;58877;51.992;4.504;2023-12-28T21:31:27;11.85;74.49
71177;DHT22;58877;51.992;4.504;2023-12-28T21:33:53;11.82;74.65
71177;DHT22;58877;51.992;4.504;2023-12-28T21:36:19;11.76;74.73
71177;DHT22;58877;51.992;4.504;2023-12-28T21:38:44;11.87;74.36
71177;DHT22;58877;51.992;4.504;2023-12-28T21:41:10;11.82;75.08
71177;DHT22;58877;51.992;4.504;2023-12-28T21:43:36;11.72;76.12
71177;DHT22;58877;51.992;4.504;2023-12-28T21:46:04;11.66;77.28
71177;DHT22;58877;51.992;4.504;2023-12-28T21:48:30;11.48;78.50
71177;DHT22;58877;51.992;4.504;2023-12-28T21:50:56;11.40;78.79
71177;DHT22;58877;51.992;4.504;2023-12-28T21:53:22;11.46;78.69
71177;DHT22;58877;51.992;4.504;2023-12-28T21:55:48;11.36;78.72
71177;DHT22;58877;51.992;4.504;2023-12-28T21:58:13;11.34;78.93
71177;DHT22;58877;51.992;4.504;2023-12-28T22:00:39;11.39;78.83
71177;DHT22;58877;51.992;4.504;2023-12-28T22:03:05;11.25;79.73
71177;DHT22;58877;51.992;4.504;2023-12-28T22:05:30;11.12;80.88
71177;DHT22;58877;51.992;4.504;2023-12-28T22:07:56;11.02;81.23
71177;DHT22;58877;51.992;4.504;2023-12-28T22:10:21;11.00;81.93
71177;DHT22;58877;51.992;4.504;2023-12-28T22:12:47;11.07;82.23